createdAt,value
2022-12-23T00:00:53.842Z,25.13
2022-12-23T00:03:27.316Z,19.67
2022-12-23T00:06:00.294Z,20.17
2022-12-23T00:08:34.443Z,22.17
2022-12-23T00:11:14.277Z,14.80
2022-12-23T00:14:04.859Z,12.05
2022-12-23T00:16:37.974Z,12.02
2022-12-23T00:19:10.554Z,11.25
2022-12-23T00:21:42.864Z,11.38
2022-12-23T00:24:15.241Z,12.77
2022-12-23T00:26:48.225Z,10.85
2022-12-23T00:29:20.723Z,10.35
2022-12-23T00:31:53.044Z,11.30
2022-12-23T00:34:25.584Z,11.30
2022-12-23T00:36:57.879Z,14.68
2022-12-23T00:39:54.632Z,15.43
2022-12-23T00:42:45.566Z,12.23
2022-12-23T00:45:18.095Z,13.07
2022-12-23T00:48:08.607Z,9.38
2022-12-23T00:50:40.864Z,9.70
2022-12-23T00:53:13.271Z,11.02
2022-12-23T00:55:47.067Z,8.02
2022-12-23T00:58:21.344Z,9.10
2022-12-23T01:01:12.240Z,10.02
2022-12-23T01:04:02.536Z,9.43
2022-12-23T01:06:34.874Z,8.10
2022-12-23T01:09:07.182Z,7.07
2022-12-23T01:11:39.633Z,7.03
2022-12-23T01:14:12.876Z,9.23
2022-12-23T01:16:45.389Z,9.20
2022-12-23T01:19:18.259Z,9.80
2022-12-23T01:21:50.613Z,9.45
2022-12-23T01:24:23.430Z,6.55
2022-12-23T01:26:56.164Z,9.13
2022-12-23T01:29:29.361Z,6.70
2022-12-23T01:32:01.820Z,6.53
2022-12-23T01:34:37.150Z,7.25
2022-12-23T01:37:10.069Z,7.00
2022-12-23T01:39:42.993Z,5.63
2022-12-23T01:42:35.214Z,7.63
2022-12-23T01:45:14.674Z,8.38
2022-12-23T01:47:52.325Z,7.82
2022-12-23T01:50:28.917Z,6.78
2022-12-23T01:53:07.831Z,5.35
2022-12-23T01:55:45.599Z,8.40
2022-12-23T01:58:22.178Z,7.22
2022-12-23T02:01:15.637Z,8.23
2022-12-23T02:03:50.310Z,7.60
2022-12-23T02:06:43.306Z,8.30
2022-12-23T02:09:17.904Z,9.68
2022-12-23T02:12:20.755Z,8.68
2022-12-23T02:15:28.628Z,11.15
2022-12-23T02:18:14.663Z,8.77
2022-12-23T02:21:03.774Z,9.55
2022-12-23T02:24:15.656Z,10.52
2022-12-23T02:27:13.989Z,10.30
2022-12-23T02:30:23.162Z,9.65
2022-12-23T02:33:15.068Z,9.55
2022-12-23T02:35:57.364Z,9.95
2022-12-23T02:38:35.778Z,9.52
2022-12-23T02:41:17.246Z,10.05
2022-12-23T02:43:56.943Z,11.82
2022-12-23T02:46:35.628Z,14.38
2022-12-23T02:49:13.098Z,14.77
2022-12-23T02:51:50.043Z,14.00
2022-12-23T02:54:27.950Z,13.68
2022-12-23T02:57:03.943Z,14.32
2022-12-23T02:59:41.839Z,14.65
2022-12-23T03:02:14.421Z,15.55
2022-12-23T03:04:47.587Z,14.55
2022-12-23T03:07:23.844Z,14.45
2022-12-23T03:10:02.840Z,10.32
2022-12-23T03:12:51.052Z,10.52
2022-12-23T03:15:37.074Z,10.82
2022-12-23T03:18:16.595Z,10.55
2022-12-23T03:23:30.255Z,8.55
2022-12-23T03:26:09.285Z,8.82
2022-12-23T03:28:46.332Z,6.70
2022-12-23T03:31:24.928Z,6.80
2022-12-23T03:34:02.363Z,5.88
2022-12-23T03:36:40.798Z,5.63
2022-12-23T03:39:17.365Z,3.88
2022-12-23T03:41:56.110Z,4.05
2022-12-23T03:44:32.416Z,2.83
2022-12-23T03:47:09.801Z,4.93
2022-12-23T03:49:47.584Z,5.45
2022-12-23T03:52:26.915Z,8.55
2022-12-23T03:55:04.359Z,8.10
2022-12-23T03:57:41.265Z,8.50
2022-12-23T04:00:13.854Z,5.65
2022-12-23T04:02:54.426Z,6.32
2022-12-23T04:05:31.746Z,6.60
2022-12-23T04:08:13.328Z,5.47
2022-12-23T04:10:46.209Z,4.57
2022-12-23T04:13:18.669Z,6.22
2022-12-23T04:15:51.046Z,6.47
2022-12-23T04:18:23.439Z,8.15
2022-12-23T04:20:55.987Z,12.45
2022-12-23T04:23:29.056Z,12.80
2022-12-23T04:26:01.450Z,9.85
2022-12-23T04:28:33.842Z,17.23
2022-12-23T04:31:06.141Z,10.88
2022-12-23T04:33:38.561Z,18.60
2022-12-23T04:36:11.257Z,18.15
2022-12-23T04:38:44.320Z,19.60
2022-12-23T04:41:16.661Z,18.52
2022-12-23T04:43:52.921Z,14.85
2022-12-23T04:46:25.744Z,13.10
2022-12-23T04:48:58.157Z,12.70
2022-12-23T04:51:30.473Z,14.13
2022-12-23T04:54:03.706Z,16.75
2022-12-23T04:56:36.041Z,14.35
2022-12-23T04:59:09.793Z,14.40
2022-12-23T05:01:42.470Z,15.63
2022-12-23T05:04:15.095Z,16.58
2022-12-23T05:06:47.429Z,16.60
2022-12-23T05:09:20.579Z,13.98
2022-12-23T05:11:52.920Z,18.92
2022-12-23T05:14:25.329Z,14.88
2022-12-23T05:17:02.168Z,12.00
2022-12-23T05:19:37.723Z,10.77
2022-12-23T05:22:10.203Z,13.43
2022-12-23T05:24:43.280Z,11.75
2022-12-23T05:27:15.660Z,11.95
2022-12-23T05:29:48.035Z,13.73
2022-12-23T05:32:20.392Z,15.35
2022-12-23T05:34:52.789Z,16.95
2022-12-23T05:37:25.117Z,13.88
2022-12-23T05:39:58.143Z,13.77
2022-12-23T05:42:30.636Z,15.30
2022-12-23T05:45:03.385Z,15.98
2022-12-23T05:47:36.192Z,14.80
2022-12-23T05:50:09.248Z,11.57
2022-12-23T05:52:41.584Z,10.48
2022-12-23T05:55:14.651Z,9.95
2022-12-23T05:57:46.977Z,10.85
2022-12-23T06:00:20.822Z,11.20
2022-12-23T06:02:54.194Z,13.15
2022-12-23T06:05:27.195Z,16.33
2022-12-23T06:07:59.503Z,20.90
2022-12-23T06:10:32.607Z,19.58
2022-12-23T06:13:04.945Z,18.25
2022-12-23T06:15:37.417Z,15.75
2022-12-23T06:18:09.901Z,14.00
2022-12-23T06:20:45.212Z,15.68
2022-12-23T06:23:17.685Z,15.23
2022-12-23T06:25:58.232Z,13.43
2022-12-23T06:28:30.605Z,13.15
2022-12-23T06:31:03.072Z,12.07
2022-12-23T06:33:35.422Z,14.88
2022-12-23T06:36:08.544Z,13.38
2022-12-23T06:38:40.921Z,14.40
2022-12-23T06:41:13.932Z,16.25
2022-12-23T06:43:49.814Z,20.20
2022-12-23T06:46:24.948Z,15.65
2022-12-23T06:48:57.270Z,13.35
2022-12-23T06:51:29.646Z,12.77
2022-12-23T06:54:02.161Z,12.98
2022-12-23T06:56:35.250Z,12.02
2022-12-23T06:59:07.617Z,13.65
2022-12-23T07:01:40.255Z,12.45
2022-12-23T07:04:12.641Z,12.15
2022-12-23T07:06:45.094Z,16.92
2022-12-23T07:09:17.484Z,17.17
2022-12-23T07:11:50.504Z,15.20
2022-12-23T07:14:22.814Z,15.07
2022-12-23T07:16:55.224Z,17.40
2022-12-23T07:19:27.571Z,14.10
2022-12-23T07:21:59.857Z,15.65
2022-12-23T07:24:32.635Z,17.60
2022-12-23T07:27:05.646Z,16.98
2022-12-23T07:29:37.999Z,16.60
2022-12-23T07:32:10.395Z,16.05
2022-12-23T07:34:42.745Z,19.90
2022-12-23T07:37:15.139Z,19.35
2022-12-23T07:39:47.513Z,21.50
2022-12-23T07:45:12.858Z,22.80
2022-12-23T07:47:45.307Z,22.25
2022-12-23T07:50:17.770Z,22.38
2022-12-23T07:52:50.802Z,21.35
2022-12-23T07:55:23.172Z,18.45
2022-12-23T07:57:56.205Z,17.58
2022-12-23T08:00:28.770Z,26.42
2022-12-23T08:03:01.485Z,21.38
2022-12-23T08:05:33.831Z,21.05
2022-12-23T08:08:06.203Z,17.30
2022-12-23T08:10:44.384Z,17.10
2022-12-23T08:13:21.033Z,14.52
2022-12-23T08:15:57.015Z,13.85
2022-12-23T08:18:30.501Z,15.02
2022-12-23T08:21:04.463Z,11.57
2022-12-23T08:23:36.829Z,10.52
2022-12-23T08:26:11.537Z,12.93
2022-12-23T08:28:45.433Z,12.85
2022-12-23T08:31:19.644Z,14.13
2022-12-23T08:33:54.087Z,11.45
2022-12-23T08:36:29.042Z,14.15
2022-12-23T08:39:04.012Z,12.68
2022-12-23T08:41:39.725Z,17.65
2022-12-23T08:44:13.824Z,17.30
2022-12-23T08:46:46.338Z,14.25
2022-12-23T08:49:18.708Z,11.05
2022-12-23T08:51:51.298Z,13.10
2022-12-23T08:54:24.471Z,11.82
2022-12-23T08:56:56.834Z,13.77
2022-12-23T08:59:29.846Z,11.60
2022-12-23T09:02:02.738Z,12.55
2022-12-23T09:04:36.232Z,12.32
2022-12-23T09:07:08.649Z,15.20
2022-12-23T09:09:41.011Z,15.93
2022-12-23T09:12:13.440Z,16.02
2022-12-23T09:14:47.009Z,17.33
2022-12-23T09:17:19.450Z,14.30
2022-12-23T09:19:53.178Z,12.32
2022-12-23T09:22:25.871Z,9.98
2022-12-23T09:25:04.638Z,11.93
2022-12-23T09:27:37.712Z,12.20
2022-12-23T09:30:11.830Z,17.60
2022-12-23T09:32:44.303Z,13.20
2022-12-23T09:35:17.180Z,14.55
2022-12-23T09:37:49.592Z,13.50
2022-12-23T09:40:22.478Z,14.75
2022-12-23T09:43:07.220Z,15.30
2022-12-23T09:45:58.456Z,17.25
2022-12-23T09:48:35.851Z,19.15
2022-12-23T09:51:10.363Z,18.65
2022-12-23T09:53:52.278Z,15.85
2022-12-23T09:56:31.379Z,15.15
2022-12-23T09:59:16.627Z,16.38
2022-12-23T10:01:56.135Z,17.77
2022-12-23T10:04:45.252Z,19.77
2022-12-23T10:07:25.426Z,16.17
2022-12-23T10:09:59.381Z,13.93
2022-12-23T10:12:40.243Z,12.27
2022-12-23T10:15:21.196Z,5.65
2022-12-23T10:17:58.149Z,12.10
2022-12-23T10:20:38.999Z,7.63
2022-12-23T10:23:16.909Z,7.22
2022-12-23T10:25:51.375Z,8.55
2022-12-23T10:28:23.947Z,3.95
2022-12-23T10:31:38.502Z,2.35
2022-12-23T10:34:04.701Z,1.88
2022-12-23T10:36:44.041Z,41.47
2022-12-23T10:39:27.396Z,5.75
2022-12-23T10:42:14.677Z,2.00
2022-12-23T10:45:04.351Z,6.88
2022-12-23T10:50:36.254Z,2.15
2022-12-23T10:53:10.732Z,3.15
2022-12-23T10:55:43.621Z,1.98
2022-12-23T10:58:17.821Z,3.67
2022-12-23T11:00:54.315Z,3.08
2022-12-23T11:03:30.994Z,5.68
2022-12-23T11:06:07.140Z,7.28
2022-12-23T11:08:40.403Z,5.47
2022-12-23T11:11:12.822Z,3.13
2022-12-23T11:13:46.230Z,4.25
2022-12-23T11:16:23.018Z,2.97
2022-12-23T11:18:59.195Z,3.15
2022-12-23T11:21:33.415Z,3.22
2022-12-23T11:24:17.218Z,2.97
2022-12-23T11:26:58.398Z,4.60
2022-12-23T11:29:34.371Z,3.22
2022-12-23T11:32:16.625Z,2.58
2022-12-23T11:34:50.524Z,3.17
2022-12-23T11:37:34.541Z,4.20
2022-12-23T11:40:20.549Z,9.00
2022-12-23T11:42:57.468Z,9.35
2022-12-23T11:45:32.682Z,9.60
2022-12-23T11:48:06.809Z,5.88
2022-12-23T11:50:40.297Z,6.68
2022-12-23T11:53:21.821Z,9.68
2022-12-23T11:55:59.733Z,7.13
2022-12-23T11:58:39.706Z,6.28
2022-12-23T12:01:16.422Z,11.30
2022-12-23T12:03:54.363Z,10.60
2022-12-23T12:06:27.712Z,10.77
2022-12-23T12:09:06.050Z,5.70
2022-12-23T12:11:43.899Z,8.63
2022-12-23T12:14:22.625Z,4.55
2022-12-23T12:17:00.351Z,4.18
2022-12-23T12:19:36.350Z,4.75
2022-12-23T12:22:33.344Z,4.93
2022-12-23T12:25:19.079Z,8.00
2022-12-23T12:27:56.804Z,7.20
2022-12-23T12:30:33.477Z,5.68
2022-12-23T12:33:14.817Z,5.97
2022-12-23T12:35:53.432Z,4.95
2022-12-23T12:38:31.498Z,6.22
2022-12-23T12:41:15.893Z,8.80
2022-12-23T12:43:52.303Z,4.25
2022-12-23T12:46:30.958Z,4.68
2022-12-23T12:49:11.647Z,2.22
2022-12-23T12:51:49.881Z,2.10
2022-12-23T12:54:27.267Z,2.13
2022-12-23T12:57:01.869Z,2.20
2022-12-23T12:59:36.811Z,4.88
2022-12-23T13:02:28.089Z,2.53
2022-12-23T13:05:16.763Z,2.25
2022-12-23T13:08:02.437Z,4.63
2022-12-23T13:10:42.844Z,2.90
2022-12-23T13:13:35.364Z,2.80
2022-12-23T13:16:19.671Z,2.72
2022-12-23T13:18:58.372Z,3.70
2022-12-23T13:21:37.047Z,2.42
2022-12-23T13:24:19.566Z,3.80
2022-12-23T13:27:02.448Z,2.38
2022-12-23T13:29:57.947Z,2.10
2022-12-23T13:32:49.549Z,5.75
2022-12-23T13:35:38.792Z,3.95
2022-12-23T13:38:25.355Z,3.55
2022-12-23T13:41:02.785Z,7.18
2022-12-23T13:43:42.802Z,4.45
2022-12-23T13:46:22.718Z,2.47
2022-12-23T13:49:02.659Z,2.05
2022-12-23T13:51:43.247Z,3.00
2022-12-23T13:54:26.606Z,3.10
2022-12-23T13:57:07.751Z,4.00
2022-12-23T13:59:41.741Z,3.63
2022-12-23T14:02:43.178Z,4.30
2022-12-23T14:05:35.853Z,3.80
2022-12-23T14:08:26.600Z,7.18
2022-12-23T14:11:02.574Z,8.13
2022-12-23T14:13:45.594Z,5.32
2022-12-23T14:16:48.229Z,2.83
2022-12-23T14:19:42.040Z,10.35
2022-12-23T14:22:44.979Z,9.25
2022-12-23T14:25:39.927Z,13.40
2022-12-23T14:28:26.972Z,11.23
2022-12-23T14:30:59.637Z,12.40
2022-12-23T14:33:36.408Z,13.93
2022-12-23T14:36:23.042Z,15.98
2022-12-23T14:39:28.615Z,17.77
2022-12-23T14:42:06.457Z,11.73
2022-12-23T14:44:49.611Z,19.67
2022-12-23T14:47:35.169Z,15.93
2022-12-23T14:50:37.370Z,14.90
2022-12-23T14:53:22.229Z,17.25
2022-12-23T14:56:20.639Z,18.25
2022-12-23T14:59:13.215Z,16.60
2022-12-23T15:01:48.513Z,37.17
2022-12-23T15:04:24.319Z,32.28
2022-12-23T15:07:02.084Z,40.03
2022-12-23T15:09:39.333Z,47.30
2022-12-23T15:12:20.276Z,54.92
2022-12-23T15:14:57.017Z,28.52
2022-12-23T15:17:31.404Z,26.60
2022-12-23T15:20:12.392Z,26.25
2022-12-23T15:22:46.868Z,23.77
2022-12-23T15:25:22.127Z,25.67
2022-12-23T15:28:01.424Z,19.98
2022-12-23T15:33:34.758Z,17.55
2022-12-23T15:36:04.374Z,25.02
2022-12-23T15:38:38.688Z,22.63
2022-12-23T15:41:17.845Z,18.98
2022-12-23T15:43:50.358Z,16.52
2022-12-23T15:46:29.875Z,17.63
2022-12-23T15:49:02.717Z,15.40
2022-12-23T15:54:33.700Z,22.73
2022-12-23T15:57:06.727Z,21.95
2022-12-23T15:59:39.592Z,23.30
2022-12-23T16:02:50.205Z,20.83
2022-12-23T16:05:22.333Z,21.58
2022-12-23T16:08:10.678Z,25.42
2022-12-23T16:10:57.858Z,23.25
2022-12-23T16:13:33.123Z,20.40
2022-12-23T16:16:32.835Z,30.13
2022-12-23T16:19:05.354Z,26.25
2022-12-23T16:21:37.916Z,29.98
2022-12-23T16:24:12.894Z,34.58
2022-12-23T16:26:45.371Z,39.78
2022-12-23T16:29:18.648Z,28.13
2022-12-23T16:32:01.224Z,37.38
2022-12-23T16:34:34.087Z,33.08
2022-12-23T16:37:07.648Z,33.95
2022-12-23T16:39:40.621Z,33.13
2022-12-23T16:42:22.815Z,36.72
2022-12-23T16:44:55.863Z,33.65
2022-12-23T16:47:28.833Z,31.38
2022-12-23T16:50:01.327Z,32.42
2022-12-23T16:52:33.727Z,30.45
2022-12-23T16:55:13.966Z,23.25
2022-12-23T16:57:46.435Z,20.40
2022-12-23T17:00:19.726Z,23.58
2022-12-23T17:02:52.241Z,27.60
2022-12-23T17:05:24.693Z,29.73
2022-12-23T17:07:57.266Z,36.58
2022-12-23T17:10:29.703Z,39.22
2022-12-23T17:13:02.125Z,37.47
2022-12-23T17:15:35.086Z,38.67
2022-12-23T17:18:12.372Z,32.13
2022-12-23T17:20:47.168Z,34.38
2022-12-23T17:23:26.590Z,55.53
2022-12-23T17:25:59.111Z,42.47
2022-12-23T17:28:32.656Z,29.73
2022-12-23T17:31:12.156Z,35.17
2022-12-23T17:33:46.744Z,41.40
2022-12-23T17:36:19.261Z,38.17
2022-12-23T17:38:51.892Z,44.00
2022-12-23T17:41:28.414Z,40.13
2022-12-23T17:44:01.477Z,34.30
2022-12-23T17:46:34.948Z,36.30
2022-12-23T17:49:07.338Z,33.35
2022-12-23T17:51:40.963Z,43.85
2022-12-23T17:54:21.587Z,29.90
2022-12-23T17:59:26.014Z,27.52
2022-12-23T18:01:59.075Z,29.65
2022-12-23T18:04:31.529Z,31.80
2022-12-23T18:07:03.856Z,50.17
2022-12-23T18:09:36.231Z,53.72
2022-12-23T18:12:24.948Z,45.45
2022-12-23T18:14:57.910Z,38.97
2022-12-23T18:17:31.368Z,47.95
2022-12-23T18:20:04.430Z,44.10
2022-12-23T18:22:36.926Z,43.97
2022-12-23T18:25:15.641Z,50.55
2022-12-23T18:27:48.082Z,44.83
2022-12-23T18:30:21.725Z,53.45
2022-12-23T18:32:54.854Z,57.70
2022-12-23T18:35:30.032Z,56.30
2022-12-23T18:38:02.351Z,58.95
2022-12-23T18:40:34.973Z,58.47
2022-12-23T18:43:15.594Z,50.58
2022-12-23T18:45:52.760Z,49.08
2022-12-23T18:48:26.672Z,45.08
2022-12-23T18:50:59.024Z,39.63
2022-12-23T18:53:31.340Z,38.75
2022-12-23T18:56:03.909Z,37.40
2022-12-23T18:58:36.232Z,46.88
2022-12-23T19:01:11.839Z,40.33
2022-12-23T19:03:45.915Z,40.53
2022-12-23T19:06:18.280Z,39.13
2022-12-23T19:08:50.619Z,39.17
2022-12-23T19:11:22.973Z,39.10
2022-12-23T19:13:55.261Z,39.20
2022-12-23T19:16:27.670Z,41.38
2022-12-23T19:19:00.872Z,38.30
2022-12-23T19:21:33.390Z,38.05
2022-12-23T19:24:05.916Z,34.75
2022-12-23T19:26:38.312Z,40.60
2022-12-23T19:29:10.710Z,33.78
2022-12-23T19:31:43.146Z,31.45
2022-12-23T19:34:16.233Z,26.63
2022-12-23T19:36:48.715Z,36.22
2022-12-23T19:39:23.302Z,32.70
2022-12-23T19:41:55.925Z,37.30
2022-12-23T19:44:28.366Z,37.85
2022-12-23T19:47:01.732Z,43.10
2022-12-23T19:49:34.669Z,35.08
2022-12-23T19:52:07.103Z,33.03
2022-12-23T19:54:39.431Z,29.30
2022-12-23T19:57:11.892Z,31.55
2022-12-23T19:59:44.205Z,27.80
2022-12-23T20:02:16.984Z,29.05
2022-12-23T20:04:50.054Z,31.98
2022-12-23T20:07:22.545Z,34.20
2022-12-23T20:09:54.954Z,34.75
2022-12-23T20:12:27.327Z,34.95
2022-12-23T20:14:59.677Z,34.58
2022-12-23T20:17:32.080Z,34.70
2022-12-23T20:20:06.911Z,32.50
2022-12-23T20:22:39.288Z,27.00
2022-12-23T20:25:11.599Z,27.05
2022-12-23T20:27:43.989Z,32.50
2022-12-23T20:30:16.380Z,23.13
2022-12-23T20:32:48.763Z,21.02
2022-12-23T20:35:21.801Z,24.65
2022-12-23T20:37:54.208Z,26.42
2022-12-23T20:40:26.528Z,30.55
2022-12-23T20:42:59.109Z,28.15
2022-12-23T20:45:31.493Z,26.02
2022-12-23T20:48:04.651Z,25.75
2022-12-23T20:50:39.225Z,32.53
2022-12-23T20:53:11.755Z,34.58
2022-12-23T20:55:44.227Z,30.63
2022-12-23T20:58:34.965Z,31.35
2022-12-23T21:01:08.722Z,28.92
2022-12-23T21:03:41.453Z,33.42
2022-12-23T21:06:14.691Z,33.83
2022-12-23T21:08:47.705Z,30.98
2022-12-23T21:11:20.055Z,30.83
2022-12-23T21:13:52.485Z,29.70
2022-12-23T21:16:24.845Z,29.50
2022-12-23T21:18:58.073Z,25.13
2022-12-23T21:21:31.180Z,25.38
2022-12-23T21:24:04.767Z,24.15
2022-12-23T21:26:37.689Z,22.05
2022-12-23T21:29:10.553Z,15.63
2022-12-23T21:31:42.928Z,14.95
2022-12-23T21:34:15.413Z,15.60
2022-12-23T21:36:48.494Z,10.43
2022-12-23T21:39:20.921Z,7.78
2022-12-23T21:41:53.246Z,6.07
2022-12-23T21:44:25.815Z,7.03
2022-12-23T21:46:58.179Z,8.02
2022-12-23T21:49:30.571Z,32.17
2022-12-23T21:52:03.942Z,31.30
2022-12-23T21:54:36.374Z,33.15
2022-12-23T21:57:09.191Z,30.48
2022-12-23T21:59:41.563Z,21.75
2022-12-23T22:02:15.617Z,21.27
2022-12-23T22:04:48.122Z,12.30
2022-12-23T22:07:21.125Z,10.88
2022-12-23T22:09:53.499Z,10.88
2022-12-23T22:12:25.781Z,8.05
2022-12-23T22:14:58.194Z,10.02
2022-12-23T22:17:30.520Z,20.83
2022-12-23T22:20:03.726Z,21.55
2022-12-23T22:22:36.721Z,22.90
2022-12-23T22:25:09.671Z,17.60
2022-12-23T22:27:42.009Z,14.75
2022-12-23T22:30:14.698Z,18.90
2022-12-23T22:32:47.215Z,14.40
2022-12-23T22:35:19.622Z,12.65
2022-12-23T22:37:52.613Z,23.60
2022-12-23T22:40:25.024Z,25.13
2022-12-23T22:42:57.301Z,26.85
2022-12-23T22:45:29.964Z,21.35
2022-12-23T22:48:02.579Z,22.25
2022-12-23T22:50:35.169Z,20.65
2022-12-23T22:53:08.093Z,17.52
2022-12-23T22:55:40.771Z,15.43
2022-12-23T22:58:13.078Z,23.42
2022-12-23T23:00:45.470Z,20.73
2022-12-23T23:03:17.859Z,20.20
2022-12-23T23:05:58.575Z,21.88
2022-12-23T23:08:33.571Z,20.48
2022-12-23T23:11:06.035Z,22.15
2022-12-23T23:13:38.373Z,26.02
2022-12-23T23:16:10.740Z,20.17
2022-12-23T23:18:43.290Z,25.10
2022-12-23T23:21:15.936Z,20.98
2022-12-23T23:23:49.134Z,21.00
2022-12-23T23:26:25.959Z,20.20
2022-12-23T23:28:58.251Z,23.05
2022-12-23T23:31:45.880Z,16.02
2022-12-23T23:34:18.279Z,18.27
2022-12-23T23:36:50.728Z,15.80
2022-12-23T23:39:23.941Z,17.55
2022-12-23T23:41:56.367Z,22.13
2022-12-23T23:44:28.789Z,22.75
2022-12-23T23:47:01.367Z,23.25
2022-12-23T23:49:33.865Z,22.35
2022-12-23T23:52:06.200Z,20.58
2022-12-23T23:54:39.174Z,24.33
2022-12-23T23:57:11.611Z,24.73
2022-12-23T23:59:43.947Z,24.05
